Time;durP1;ratioP1;P1;durP2;ratioP2;P2;SDS_P1;SDS_P2;PMS_P1;PMS_P2;Temp;Humidity;BMP_temperature;BMP_pressure;BME280_temperature;BME280_humidity;BME280_pressure;Samples;Min_cycle;Max_cycle;Signal;HPM_P1;HPM_P2
2022/03/31 00:00:44;;;;;;;58.70;32.13;;;12.60;52.80;;;;;;5114699;28;20257;-71
2022/03/31 00:03:13;;;;;;;62.80;32.17;;;12.90;51.30;;;;;;5112720;28;20205;-70
2022/03/31 00:05:39;;;;;;;55.63;30.90;;;13.20;51.50;;;;;;5113738;28;20436;-71
2022/03/31 00:08:18;;;;;;;56.57;30.97;;;12.90;51.30;;;;;;5114343;28;21022;-71
2022/03/31 00:10:46;;;;;;;61.63;32.13;;;12.80;51.20;;;;;;5114058;28;20976;-71
2022/03/31 00:13:15;;;;;;;65.07;30.87;;;12.60;51.70;;;;;;5107289;28;20437;-71
2022/03/31 00:15:41;;;;;;;64.53;31.83;;;12.60;52.30;;;;;;5093927;28;20899;-72
2022/03/31 00:18:08;;;;;;;59.40;31.93;;;12.70;52.80;;;;;;5108748;28;20523;-69
2022/03/31 00:20:34;;;;;;;64.53;31.90;;;12.70;52.70;;;;;;5114270;28;20405;-71
2022/03/31 00:23:00;;;;;;;58.53;33.20;;;12.70;51.50;;;;;;5113835;28;20515;-71
2022/03/31 00:25:26;;;;;;;65.47;33.10;;;12.70;53.00;;;;;;5112398;28;20174;-71
2022/03/31 00:27:52;;;;;;;62.50;32.50;;;12.70;52.00;;;;;;5113573;28;20425;-71
2022/03/31 00:30:18;;;;;;;58.20;30.10;;;12.80;50.60;;;;;;5113026;28;20412;-71
2022/03/31 00:32:44;;;;;;;61.10;32.80;;;12.90;50.60;;;;;;5113508;28;20423;-72
2022/03/31 00:35:15;;;;;;;55.90;30.50;;;12.70;50.50;;;;;;5102397;28;20891;-71
2022/03/31 00:37:42;;;;;;;61.40;30.97;;;12.60;53.60;;;;;;5094511;28;20280;-71
2022/03/31 00:40:09;;;;;;;68.10;33.83;;;12.00;56.00;;;;;;5112898;28;20415;-70
2022/03/31 00:42:43;;;;;;;65.40;33.37;;;12.20;54.30;;;;;;5112928;28;20420;-71
2022/03/31 00:45:15;;;;;;;61.40;33.13;;;12.20;53.90;;;;;;5111850;28;20434;-72
2022/03/31 00:47:41;;;;;;;61.20;31.80;;;12.20;53.80;;;;;;5113844;28;20396;-71
2022/03/31 00:50:07;;;;;;;63.63;32.67;;;12.50;52.00;;;;;;5113084;28;20462;-71
2022/03/31 00:52:33;;;;;;;58.73;31.73;;;12.40;51.90;;;;;;5112872;28;20423;-71
2022/03/31 00:54:59;;;;;;;59.23;32.80;;;12.50;51.20;;;;;;5113325;28;20401;-71
2022/03/31 00:57:25;;;;;;;60.40;32.53;;;12.50;51.90;;;;;;5111278;28;20170;-72
2022/03/31 00:59:52;;;;;;;63.43;32.47;;;12.50;51.90;;;;;;5113058;28;21028;-72
2022/03/31 01:02:17;;;;;;;70.43;32.03;;;12.50;51.70;;;;;;5112917;28;20245;-72
2022/03/31 01:04:43;;;;;;;61.57;32.63;;;12.60;51.00;;;;;;5113431;28;20587;-71
2022/03/31 01:07:09;;;;;;;67.57;33.77;;;12.40;50.80;;;;;;5112325;28;20260;-71
2022/03/31 01:09:35;;;;;;;63.47;33.80;;;12.30;52.60;;;;;;5113068;28;20450;-71
2022/03/31 01:12:03;;;;;;;58.73;32.27;;;12.40;52.40;;;;;;5112774;28;20174;-70
2022/03/31 01:14:30;;;;;;;62.73;32.77;;;12.40;51.50;;;;;;5112347;28;20205;-71
2022/03/31 01:16:56;;;;;;;70.00;34.47;;;12.40;52.00;;;;;;5109098;28;21080;-71
2022/03/31 01:19:22;;;;;;;67.63;32.93;;;12.80;52.50;;;;;;5092805;28;20405;-71
2022/03/31 01:21:48;;;;;;;77.53;33.17;;;12.50;52.10;;;;;;5106312;28;20427;-69
2022/03/31 01:24:15;;;;;;;62.90;32.63;;;12.60;51.00;;;;;;5112148;28;20200;-70
2022/03/31 01:26:42;;;;;;;64.47;32.83;;;12.60;51.00;;;;;;5112535;28;20604;-72
2022/03/31 01:29:10;;;;;;;66.10;33.23;;;12.50;51.90;;;;;;5110538;28;20487;-71
2022/03/31 01:31:40;;;;;;;71.60;35.70;;;12.60;51.60;;;;;;5112015;28;20415;-71
2022/03/31 01:34:07;;;;;;;68.00;35.07;;;12.50;51.50;;;;;;5112577;28;20423;-71
2022/03/31 01:36:34;;;;;;;71.07;35.00;;;12.50;52.30;;;;;;5112886;28;20396;-71
2022/03/31 01:39:00;;;;;;;76.63;36.00;;;12.50;52.30;;;;;;5102645;28;20428;-71
2022/03/31 01:41:25;;;;;;;73.23;35.10;;;12.10;54.40;;;;;;5091137;28;20413;-69
2022/03/31 01:43:51;;;;;;;66.47;34.43;;;12.00;56.10;;;;;;5093612;28;20236;-71
2022/03/31 01:46:17;;;;;;;66.63;35.27;;;12.10;54.30;;;;;;5104251;28;20723;-71
2022/03/31 01:48:43;;;;;;;77.87;36.47;;;12.00;55.30;;;;;;5112166;28;20196;-71
2022/03/31 01:51:09;;;;;;;67.10;35.13;;;12.10;54.50;;;;;;5112302;28;20663;-71
2022/03/31 01:53:37;;;;;;;70.70;36.40;;;12.40;54.10;;;;;;5111831;28;20213;-72
2022/03/31 01:56:03;;;;;;;77.70;35.87;;;12.70;51.10;;;;;;5110203;28;20411;-69
2022/03/31 01:58:29;;;;;;;68.73;34.80;;;12.60;51.00;;;;;;5112303;28;20947;-71
2022/03/31 02:00:55;;;;;;;72.00;36.33;;;12.50;51.50;;;;;;5111880;28;20503;-71
2022/03/31 02:03:22;;;;;;;76.10;38.00;;;12.60;51.00;;;;;;5109616;28;20531;-71
2022/03/31 02:05:48;;;;;;;75.47;37.60;;;12.60;51.00;;;;;;5107776;28;20226;-71
2022/03/31 02:08:14;;;;;;;74.70;36.47;;;12.60;51.00;;;;;;5091779;28;20837;-69
2022/03/31 02:10:39;;;;;;;83.93;38.07;;;12.70;50.60;;;;;;5110917;28;20234;-71
2022/03/31 02:13:07;;;;;;;88.80;39.10;;;12.70;51.10;;;;;;5111370;28;20269;-70
2022/03/31 02:15:32;;;;;;;81.53;37.83;;;12.50;51.10;;;;;;5111786;28;20178;-71
2022/03/31 02:17:59;;;;;;;78.33;36.60;;;12.30;52.60;;;;;;5109956;28;20507;-70
2022/03/31 02:20:26;;;;;;;77.37;37.20;;;12.40;53.50;;;;;;5112132;28;20199;-70
2022/03/31 02:22:52;;;;;;;74.63;36.67;;;12.30;53.30;;;;;;5111567;28;20424;-70
2022/03/31 02:25:19;;;;;;;72.03;35.93;;;11.80;54.60;;;;;;5111871;28;20407;-70
2022/03/31 02:27:49;;;;;;;73.97;35.83;;;11.80;55.00;;;;;;5110352;28;20257;-70
2022/03/31 02:30:15;;;;;;;74.23;35.67;;;11.70;55.40;;;;;;5112084;28;20393;-71
2022/03/31 02:32:42;;;;;;;79.07;37.73;;;11.90;54.70;;;;;;5111464;28;20402;-71
2022/03/31 02:35:08;;;;;;;75.70;38.33;;;12.10;54.50;;;;;;5111769;28;20624;-71
2022/03/31 02:37:34;;;;;;;79.97;39.00;;;12.30;53.20;;;;;;5109935;28;20424;-72
2022/03/31 02:40:01;;;;;;;78.50;37.53;;;12.40;53.00;;;;;;5111676;28;20507;-71
2022/03/31 02:42:26;;;;;;;81.97;36.53;;;13.00;51.40;;;;;;5111352;28;20420;-71
2022/03/31 02:44:52;;;;;;;82.13;40.47;;;12.70;51.10;;;;;;5111472;28;20420;-71
2022/03/31 02:47:17;;;;;;;66.60;34.97;;;12.80;50.60;;;;;;5111601;28;20238;-71
2022/03/31 02:49:44;;;;;;;78.73;38.40;;;12.60;51.00;;;;;;5110341;28;20245;-71
2022/03/31 02:52:10;;;;;;;97.27;39.37;;;12.50;51.10;;;;;;5111155;28;20191;-71
2022/03/31 02:57:19;;;;;;;77.63;39.40;;;11.80;54.30;;;;;;5115527;28;20213;-71
2022/03/31 02:59:45;;;;;;;79.33;39.53;;;11.40;58.80;;;;;;5113959;28;20458;-69
2022/03/31 03:02:11;;;;;;;79.10;37.90;;;11.30;59.40;;;;;;5114318;28;20181;-71
2022/03/31 03:04:37;;;;;;;81.23;38.97;;;11.30;60.50;;;;;;5115520;28;20597;-71
2022/03/31 03:07:03;;;;;;;76.40;37.40;;;11.90;56.50;;;;;;5115703;28;20211;-69
2022/03/31 03:09:29;;;;;;;76.77;39.17;;;11.70;55.80;;;;;;5112819;28;20435;-71
2022/03/31 03:11:54;;;;;;;83.70;39.03;;;11.40;58.40;;;;;;5114627;28;20496;-71
2022/03/31 03:14:22;;;;;;;84.20;39.00;;;10.70;64.30;;;;;;5113889;28;20506;-70
2022/03/31 03:16:48;;;;;;;89.13;39.77;;;10.50;67.90;;;;;;5114558;28;20318;-71
2022/03/31 03:19:14;;;;;;;86.40;39.37;;;10.70;65.90;;;;;;5114800;28;20546;-69
2022/03/31 03:21:40;;;;;;;81.63;38.60;;;11.10;62.50;;;;;;5114495;28;20662;-71
2022/03/31 03:24:05;;;;;;;78.83;38.10;;;11.40;60.20;;;;;;5115176;28;20197;-71
2022/03/31 03:26:31;;;;;;;70.00;36.10;;;11.70;56.60;;;;;;5115302;28;20411;-71
2022/03/31 03:28:57;;;;;;;74.37;37.60;;;11.90;54.10;;;;;;5114600;28;20476;-72
2022/03/31 03:31:23;;;;;;;68.20;33.63;;;12.20;51.40;;;;;;5114242;28;20178;-70
2022/03/31 03:33:49;;;;;;;67.77;35.67;;;12.00;51.70;;;;;;5114617;28;20433;-70
2022/03/31 03:36:16;;;;;;;73.63;33.30;;;11.90;53.20;;;;;;5114580;28;20182;-70
2022/03/31 03:38:42;;;;;;;67.30;32.77;;;11.80;52.40;;;;;;5107964;28;20191;-69
2022/03/31 03:41:10;;;;;;;61.10;31.10;;;11.70;52.70;;;;;;5114850;28;20420;-70
2022/03/31 03:43:35;;;;;;;62.30;31.57;;;11.70;51.80;;;;;;5113553;28;20450;-70
2022/03/31 03:46:01;;;;;;;56.00;30.93;;;11.20;54.60;;;;;;5114638;28;20408;-70
2022/03/31 03:48:27;;;;;;;67.50;31.53;;;11.30;55.10;;;;;;5114626;28;20949;-70
2022/03/31 03:50:53;;;;;;;60.37;31.40;;;11.60;53.70;;;;;;5114378;28;20178;-70
2022/03/31 03:53:19;;;;;;;56.93;32.10;;;11.80;51.30;;;;;;5113519;28;20439;-70
2022/03/31 03:55:45;;;;;;;56.13;29.40;;;12.00;50.40;;;;;;5114506;28;20925;-70
2022/03/31 03:58:11;;;;;;;64.97;32.33;;;11.70;51.90;;;;;;5114418;28;20462;-69
2022/03/31 04:00:36;;;;;;;67.33;34.37;;;11.70;52.60;;;;;;5109871;28;20218;-70
2022/03/31 04:03:02;;;;;;;66.73;33.33;;;11.90;51.30;;;;;;5113069;28;20215;-70
2022/03/31 04:05:28;;;;;;;66.60;32.87;;;11.80;51.90;;;;;;5094572;28;20176;-70
2022/03/31 04:07:53;;;;;;;67.07;31.03;;;11.80;51.00;;;;;;5114399;28;20162;-71
2022/03/31 04:10:19;;;;;;;67.60;33.17;;;11.50;52.20;;;;;;5113499;28;20170;-71
2022/03/31 04:12:45;;;;;;;64.70;32.70;;;11.80;51.00;;;;;;5113526;28;20205;-71
2022/03/31 04:15:13;;;;;;;66.60;35.40;;;11.20;52.30;;;;;;5113216;28;20185;-71
2022/03/31 04:17:39;;;;;;;64.97;34.23;;;10.90;55.40;;;;;;5114045;28;20180;-71
2022/03/31 04:20:05;;;;;;;61.27;34.37;;;11.20;54.70;;;;;;5113452;28;20467;-71
2022/03/31 04:22:33;;;;;;;65.13;34.20;;;11.50;52.90;;;;;;5112602;28;20424;-69
2022/03/31 04:24:59;;;;;;;69.63;34.80;;;11.80;52.10;;;;;;5110963;28;20446;-70
2022/03/31 04:27:25;;;;;;;66.77;33.27;;;11.80;50.60;;;;;;5112579;28;20408;-70
2022/03/31 04:29:51;;;;;;;55.60;30.97;;;11.60;51.50;;;;;;5112942;28;20498;-71
2022/03/31 04:32:16;;;;;;;60.50;32.23;;;11.60;50.70;;;;;;5113048;28;20425;-71
2022/03/31 04:34:42;;;;;;;62.83;32.20;;;11.30;52.10;;;;;;5112093;28;20565;-71
2022/03/31 04:37:08;;;;;;;65.43;33.10;;;11.40;52.40;;;;;;5113425;28;20219;-69
2022/03/31 04:39:33;;;;;;;61.93;32.07;;;11.40;52.50;;;;;;5113086;28;20198;-71
2022/03/31 04:41:59;;;;;;;63.03;33.90;;;11.40;51.80;;;;;;5113362;28;20544;-71
2022/03/31 04:44:25;;;;;;;68.93;33.80;;;11.60;50.90;;;;;;5093889;28;20296;-71
2022/03/31 04:46:50;;;;;;;66.97;33.30;;;11.10;54.30;;;;;;5082558;28;20178;-71
2022/03/31 04:49:16;;;;;;;66.53;33.40;;;11.20;54.30;;;;;;5110928;28;20174;-70
2022/03/31 04:51:42;;;;;;;65.13;33.27;;;11.40;52.60;;;;;;5112576;28;20181;-71
2022/03/31 04:54:08;;;;;;;60.80;31.27;;;11.60;52.20;;;;;;5111258;28;20281;-70
2022/03/31 04:56:33;;;;;;;59.67;31.97;;;11.40;49.90;;;;;;5111545;28;20581;-71
2022/03/31 04:58:59;;;;;;;58.93;32.50;;;10.60;56.60;;;;;;5149337;22;20243;-66
2022/03/31 05:01:25;;;;;;;63.33;32.43;;;10.90;54.80;;;;;;5103841;27;21165;-67
2022/03/31 05:03:54;;;;;;;54.73;30.87;;;11.00;53.00;;;;;;5128382;27;20649;-68
2022/03/31 05:06:20;;;;;;;65.63;29.95;;;11.00;53.90;;;;;;5133675;27;20373;-66
2022/03/31 05:08:45;;;;;;;54.77;29.67;;;11.30;53.00;;;;;;5125232;27;20726;-66
2022/03/31 05:11:11;;;;;;;74.27;31.90;;;11.50;51.90;;;;;;5112950;28;20181;-67
2022/03/31 05:13:37;;;;;;;52.47;30.37;;;11.70;52.20;;;;;;5112610;28;20170;-67
2022/03/31 05:16:03;;;;;;;59.03;31.10;;;11.30;52.10;;;;;;5112683;28;20461;-69
2022/03/31 05:18:28;;;;;;;65.97;32.73;;;11.40;52.00;;;;;;5112142;28;20225;-66
2022/03/31 05:20:54;;;;;;;54.93;29.87;;;11.60;50.10;;;;;;5112572;28;20173;-66
2022/03/31 05:23:19;;;;;;;56.87;30.17;;;11.60;49.30;;;;;;5113105;28;20540;-66
2022/03/31 05:25:45;;;;;;;55.27;30.23;;;11.70;48.80;;;;;;5112385;28;20176;-66
2022/03/31 05:28:11;;;;;;;69.90;32.33;;;11.60;50.00;;;;;;5110979;28;20177;-68
2022/03/31 05:30:37;;;;;;;58.47;30.53;;;11.20;52.00;;;;;;5111043;28;20935;-69
2022/03/31 05:33:04;;;;;;;61.07;32.80;;;11.70;50.90;;;;;;5112502;28;20204;-68
2022/03/31 05:35:30;;;;;;;69.03;33.20;;;11.30;51.00;;;;;;5112326;28;20420;-66
2022/03/31 05:37:56;;;;;;;60.43;32.67;;;11.50;50.30;;;;;;5112333;28;20419;-69
2022/03/31 05:40:22;;;;;;;52.40;29.90;;;11.50;50.40;;;;;;5097423;28;20441;-69
2022/03/31 05:42:48;;;;;;;76.73;32.80;;;11.20;51.60;;;;;;5093546;28;20182;-69
2022/03/31 05:45:14;;;;;;;62.00;31.77;;;11.20;51.90;;;;;;5112101;28;20170;-69
2022/03/31 05:47:43;;;;;;;67.00;32.83;;;11.20;52.60;;;;;;5112400;28;20773;-71
2022/03/31 05:50:10;;;;;;;67.17;34.87;;;11.60;50.80;;;;;;5109638;28;20446;-72
2022/03/31 05:52:38;;;;;;;66.83;34.43;;;11.90;50.30;;;;;;5090454;28;20473;-72
2022/03/31 05:55:09;;;;;;;66.53;34.30;;;11.60;50.10;;;;;;5103020;28;20761;-73
2022/03/31 05:57:35;;;;;;;79.63;38.27;;;11.10;52.30;;;;;;5109014;28;20438;-72
2022/03/31 06:00:03;;;;;;;73.70;36.13;;;11.20;51.90;;;;;;5091525;28;20957;-72
2022/03/31 06:02:29;;;;;;;79.33;39.10;;;10.80;54.40;;;;;;5106363;28;20419;-70
2022/03/31 06:04:54;;;;;;;70.70;37.70;;;10.80;56.60;;;;;;5101233;28;20432;-73
2022/03/31 06:07:20;;;;;;;71.73;38.10;;;11.00;54.30;;;;;;5109961;28;20669;-72
2022/03/31 06:09:46;;;;;;;68.87;35.40;;;11.30;53.50;;;;;;5108509;28;20193;-71
2022/03/31 06:12:11;;;;;;;79.80;36.07;;;11.40;51.70;;;;;;5102746;28;20174;-71
2022/03/31 06:14:37;;;;;;;78.83;38.17;;;11.50;52.10;;;;;;5111751;28;20209;-71
2022/03/31 06:17:03;;;;;;;70.83;36.70;;;11.60;51.20;;;;;;5107303;28;20215;-72
2022/03/31 06:19:28;;;;;;;67.23;35.83;;;11.70;50.20;;;;;;5111955;28;20212;-74
2022/03/31 06:21:54;;;;;;;69.83;36.00;;;11.70;49.60;;;;;;5093684;28;20587;-71
2022/03/31 06:24:19;;;;;;;77.20;35.07;;;11.80;52.00;;;;;;5094162;28;20174;-71
2022/03/31 06:26:46;;;;;;;68.80;34.33;;;11.50;51.50;;;;;;5108260;28;20178;-72
2022/03/31 06:29:13;;;;;;;70.17;37.07;;;11.60;50.10;;;;;;5115286;28;20189;-72
2022/03/31 06:31:38;;;;;;;72.67;36.70;;;11.50;50.60;;;;;;5116250;28;20423;-74
2022/03/31 06:34:05;;;;;;;62.13;34.43;;;11.60;50.10;;;;;;5098233;28;20418;-71
2022/03/31 06:36:31;;;;;;;67.23;36.30;;;11.30;51.30;;;;;;5115827;28;20200;-72
2022/03/31 06:38:57;;;;;;;70.63;35.80;;;11.40;50.20;;;;;;5116024;28;20463;-72
2022/03/31 06:41:22;;;;;;;65.93;32.00;;;11.30;52.70;;;;;;5116101;28;20785;-71
2022/03/31 06:43:48;;;;;;;65.10;34.10;;;11.40;52.00;;;;;;5116107;28;20173;-72
2022/03/31 06:46:15;;;;;;;71.30;35.80;;;11.40;50.80;;;;;;5116252;28;20201;-71
2022/03/31 06:48:43;;;;;;;67.77;33.10;;;11.30;51.40;;;;;;5115964;28;20480;-71
2022/03/31 06:51:10;;;;;;;57.20;30.17;;;11.10;51.70;;;;;;5097708;28;20511;-70
2022/03/31 06:53:37;;;;;;;58.80;32.37;;;9.60;61.90;;;;;;5115745;28;20422;-72
2022/03/31 06:56:08;;;;;;;56.40;32.00;;;9.40;68.70;;;;;;5097438;28;20514;-70
2022/03/31 06:58:34;;;;;;;56.83;32.43;;;10.20;63.10;;;;;;5115436;28;20497;-72
2022/03/31 07:01:00;;;;;;;67.10;34.57;;;10.70;57.60;;;;;;5115281;28;20420;-76
2022/03/31 07:03:27;;;;;;;65.07;33.30;;;11.20;54.00;;;;;;5115971;28;20162;-72
2022/03/31 07:05:53;;;;;;;75.70;33.60;;;11.10;54.40;;;;;;5115513;28;20411;-71
2022/03/31 07:08:19;;;;;;;63.33;33.30;;;11.40;51.90;;;;;;5115622;28;20408;-71
2022/03/31 07:10:45;;;;;;;69.13;32.73;;;10.50;55.30;;;;;;5115217;28;20578;-72
2022/03/31 07:13:11;;;;;;;59.70;33.20;;;10.10;58.40;;;;;;5115395;28;20213;-72
2022/03/31 07:15:37;;;;;;;60.67;31.37;;;10.00;61.50;;;;;;5115318;28;20181;-72
2022/03/31 07:18:04;;;;;;;69.30;34.10;;;9.90;61.00;;;;;;5115025;28;20427;-72
2022/03/31 07:20:31;;;;;;;72.67;36.03;;;10.10;62.40;;;;;;5115116;28;20435;-72
2022/03/31 07:22:56;;;;;;;79.43;37.83;;;11.10;59.30;;;;;;5114065;28;20438;-72
2022/03/31 07:25:23;;;;;;;84.93;36.07;;;11.10;55.80;;;;;;5111117;28;20780;-72
2022/03/31 07:27:49;;;;;;;61.50;32.43;;;11.30;53.60;;;;;;5107733;28;20622;-73
2022/03/31 07:30:17;;;;;;;70.18;32.83;;;11.10;53.70;;;;;;5112636;28;20451;-72
2022/03/31 07:32:54;;;;;;;61.80;31.20;;;11.10;52.70;;;;;;5096220;28;20211;-71
2022/03/31 07:35:22;;;;;;;59.80;30.03;;;9.80;61.10;;;;;;5113612;28;20431;-71
2022/03/31 07:37:52;;;;;;;62.58;32.55;;;9.60;64.00;;;;;;5093368;28;20420;-71
2022/03/31 07:40:18;;;;;;;70.85;32.70;;;9.10;69.90;;;;;;5114396;28;20288;-72
2022/03/31 07:42:44;;;;;;;72.03;34.50;;;9.50;69.00;;;;;;5113594;28;20173;-72
2022/03/31 07:45:11;;;;;;;75.00;34.00;;;10.20;65.80;;;;;;5098743;28;20422;-71
2022/03/31 07:47:41;;;;;;;69.17;32.30;;;10.40;60.60;;;;;;5100155;28;20226;-72
2022/03/31 07:50:09;;;;;;;70.30;32.77;;;10.90;56.60;;;;;;5113930;28;20804;-73
2022/03/31 07:52:35;;;;;;;60.40;30.83;;;11.10;55.00;;;;;;5113821;28;20832;-72
2022/03/31 07:55:01;;;;;;;76.20;33.77;;;11.30;53.40;;;;;;5114358;28;20438;-73
2022/03/31 07:57:27;;;;;;;65.47;34.40;;;11.60;52.40;;;;;;5096159;28;20492;-72
2022/03/31 07:59:53;;;;;;;68.87;33.83;;;11.60;51.40;;;;;;5114127;28;20955;-75
2022/03/31 08:02:18;;;;;;;62.50;30.53;;;11.60;51.50;;;;;;5114239;28;20635;-72
2022/03/31 08:04:44;;;;;;;60.90;31.53;;;11.80;50.20;;;;;;5114486;28;20549;-72
2022/03/31 08:07:10;;;;;;;58.40;33.20;;;11.90;49.50;;;;;;5114057;28;20174;-72
2022/03/31 08:09:35;;;;;;;66.47;32.63;;;11.90;50.40;;;;;;5114547;28;20556;-74
2022/03/31 08:12:01;;;;;;;67.70;32.80;;;11.90;49.70;;;;;;5114203;28;20658;-72
2022/03/31 08:14:27;;;;;;;62.33;30.13;;;11.80;50.80;;;;;;5114336;28;20241;-72
2022/03/31 08:16:52;;;;;;;59.50;30.17;;;12.10;50.50;;;;;;5114150;28;20189;-72
2022/03/31 08:19:19;;;;;;;55.67;28.60;;;12.40;48.40;;;;;;5114423;28;20201;-72
2022/03/31 08:21:46;;;;;;;64.13;29.73;;;12.30;49.00;;;;;;5114204;28;20192;-72
2022/03/31 08:24:13;;;;;;;61.60;30.80;;;12.40;49.10;;;;;;5113818;28;20423;-73
2022/03/31 08:26:40;;;;;;;57.13;30.17;;;11.90;50.30;;;;;;5114531;28;20419;-72
2022/03/31 08:29:07;;;;;;;57.70;30.80;;;11.90;50.80;;;;;;5113752;28;20459;-74
2022/03/31 08:31:34;;;;;;;76.47;32.00;;;12.00;50.10;;;;;;5113292;28;20409;-72
2022/03/31 08:34:03;;;;;;;69.70;31.40;;;12.00;51.70;;;;;;5104238;28;20493;-72
2022/03/31 08:36:29;;;;;;;63.87;31.33;;;12.20;50.60;;;;;;5105459;28;20415;-71
2022/03/31 08:38:55;;;;;;;64.57;32.27;;;12.40;50.00;;;;;;5087057;28;21026;-73
2022/03/31 08:41:24;;;;;;;61.53;30.87;;;12.40;49.10;;;;;;5113825;28;20171;-73
2022/03/31 08:43:50;;;;;;;59.93;31.37;;;12.90;48.20;;;;;;5113664;28;20416;-72
2022/03/31 08:46:16;;;;;;;59.80;32.37;;;12.30;50.60;;;;;;5095663;28;20421;-73
2022/03/31 08:48:42;;;;;;;57.27;30.60;;;12.60;49.30;;;;;;5095173;28;20477;-71
2022/03/31 08:51:09;;;;;;;66.73;32.87;;;12.50;48.10;;;;;;5094681;28;20460;-71
2022/03/31 08:53:35;;;;;;;64.87;35.10;;;12.40;49.10;;;;;;5113471;28;20416;-71
2022/03/31 08:56:02;;;;;;;55.50;31.60;;;12.60;48.00;;;;;;5108397;28;20435;-71
2022/03/31 08:58:28;;;;;;;64.27;32.37;;;12.80;47.20;;;;;;5110239;28;20465;-71
2022/03/31 09:00:54;;;;;;;60.30;31.27;;;12.60;47.20;;;;;;5091392;28;20447;-71
2022/03/31 09:03:19;;;;;;;55.33;29.60;;;12.50;47.00;;;;;;5113051;28;20207;-71
2022/03/31 09:05:49;;;;;;;62.77;31.73;;;12.40;48.20;;;;;;5112643;28;20782;-72
2022/03/31 09:08:16;;;;;;;61.63;29.63;;;12.60;46.90;;;;;;5094193;28;20264;-72
2022/03/31 09:10:49;;;;;;;58.70;32.43;;;12.30;47.40;;;;;;5093154;28;20444;-72
2022/03/31 09:13:28;;;;;;;66.87;30.83;;;12.30;48.60;;;;;;5103433;28;20420;-71
2022/03/31 09:15:57;;;;;;;50.20;28.50;;;12.60;47.50;;;;;;5104048;28;20408;-70
2022/03/31 09:18:24;;;;;;;73.40;32.57;;;12.80;47.60;;;;;;5100701;28;20418;-71
2022/03/31 09:20:53;;;;;;;58.30;30.13;;;13.40;47.30;;;;;;5101304;28;20456;-73
2022/03/31 09:23:21;;;;;;;55.73;29.67;;;13.20;46.00;;;;;;5111982;28;20937;-70
2022/03/31 09:25:47;;;;;;;58.57;30.00;;;13.10;45.90;;;;;;5112510;28;20421;-74
2022/03/31 09:28:19;;;;;;;60.17;30.10;;;13.20;47.70;;;;;;5094178;28;20979;-74
2022/03/31 09:30:46;;;;;;;54.87;30.80;;;13.20;46.70;;;;;;5110805;28;20569;-74
2022/03/31 09:33:15;;;;;;;54.13;30.27;;;13.70;44.50;;;;;;5094192;28;20478;-72
2022/03/31 09:35:41;;;;;;;52.93;28.97;;;13.40;44.10;;;;;;5112283;28;20418;-71
2022/03/31 09:38:13;;;;;;;52.33;28.73;;;13.40;44.90;;;;;;5112410;28;20522;-71
2022/03/31 09:40:39;;;;;;;58.53;29.60;;;14.10;42.30;;;;;;5101431;28;20221;-78
2022/03/31 09:43:04;;;;;;;52.80;29.40;;;13.60;43.90;;;;;;5112014;28;20850;-72
2022/03/31 09:45:40;;;;;;;52.30;31.07;;;13.70;46.30;;;;;;5112137;28;20174;-72
2022/03/31 09:48:20;;;;;;;51.73;30.30;;;12.40;49.70;;;;;;5099023;28;20174;-75
2022/03/31 09:50:46;;;;;;;48.63;28.63;;;12.80;47.30;;;;;;5108797;28;21009;-75
2022/03/31 09:53:13;;;;;;;53.67;30.27;;;12.10;48.40;;;;;;5111939;28;20482;-74
2022/03/31 09:55:41;;;;;;;50.27;30.60;;;11.30;54.70;;;;;;5086113;28;20936;-71
2022/03/31 09:58:08;;;;;;;51.13;28.50;;;11.70;57.30;;;;;;5101857;28;20427;-71
2022/03/31 10:00:34;;;;;;;51.40;28.03;;;12.60;51.00;;;;;;5109738;28;20797;-72
2022/03/31 10:03:00;;;;;;;51.90;29.20;;;12.10;51.40;;;;;;5110790;28;20560;-71
2022/03/31 10:05:27;;;;;;;45.93;27.70;;;11.80;51.40;;;;;;5111946;28;20436;-74
2022/03/31 10:07:54;;;;;;;53.40;29.50;;;12.30;50.00;;;;;;5112143;28;20403;-72
2022/03/31 10:10:20;;;;;;;43.83;25.87;;;13.30;48.00;;;;;;5112228;28;20928;-73
2022/03/31 10:13:15;;;;;;;43.90;26.97;;;13.90;44.30;;;;;;5110312;28;20426;-72
2022/03/31 10:15:42;;;;;;;46.67;26.70;;;14.20;42.60;;;;;;5111893;28;20173;-74
2022/03/31 10:18:11;;;;;;;44.50;26.63;;;14.30;41.70;;;;;;5111625;28;20755;-76
2022/03/31 10:20:37;;;;;;;47.00;27.00;;;14.30;41.30;;;;;;5111997;28;20468;-74
2022/03/31 10:25:49;;;;;;;43.70;26.83;;;13.70;41.70;;;;;;5112216;28;20391;-76
2022/03/31 10:28:17;;;;;;;44.50;27.03;;;12.70;46.50;;;;;;5111752;28;20418;-75
2022/03/31 10:31:00;;;;;;;46.50;27.30;;;12.70;48.70;;;;;;5093624;28;20554;-75
2022/03/31 10:33:44;;;;;;;46.47;27.40;;;13.20;45.90;;;;;;5109890;28;20498;-75
2022/03/31 10:36:16;;;;;;;42.10;26.77;;;13.30;43.90;;;;;;5112042;28;20445;-76
2022/03/31 10:38:53;;;;;;;43.60;27.07;;;13.40;46.40;;;;;;5111578;28;20520;-74
2022/03/31 10:41:19;;;;;;;44.33;27.27;;;13.30;43.60;;;;;;5111768;28;20408;-76
2022/03/31 10:43:48;;;;;;;46.40;28.03;;;12.40;50.80;;;;;;5109721;28;20943;-75
2022/03/31 10:46:19;;;;;;;41.13;26.63;;;13.10;48.80;;;;;;5093338;28;20246;-75
2022/03/31 10:49:07;;;;;;;42.27;26.60;;;13.80;45.70;;;;;;5111635;28;20481;-75
2022/03/31 10:51:37;;;;;;;50.53;26.33;;;14.20;43.20;;;;;;5111766;28;20395;-76
2022/03/31 10:54:05;;;;;;;44.63;26.20;;;13.70;42.30;;;;;;5109805;28;20920;-76
2022/03/31 10:56:32;;;;;;;40.63;26.07;;;13.90;44.00;;;;;;5093170;28;20424;-76
2022/03/31 10:59:01;;;;;;;35.07;23.07;;;14.60;40.90;;;;;;5111132;28;20492;-76
2022/03/31 11:01:32;;;;;;;36.33;22.00;;;14.80;42.20;;;;;;5111680;28;20436;-76
2022/03/31 11:04:08;;;;;;;43.30;24.20;;;14.50;40.40;;;;;;5110420;28;20835;-76
2022/03/31 11:06:44;;;;;;;39.20;24.47;;;15.00;39.10;;;;;;5091614;28;20520;-76
2022/03/31 11:09:22;;;;;;;37.43;24.00;;;15.50;38.50;;;;;;5091091;28;20440;-75
2022/03/31 11:11:51;;;;;;;39.47;25.07;;;15.20;38.60;;;;;;5091175;28;20406;-75
2022/03/31 11:14:17;;;;;;;47.43;26.53;;;15.10;38.30;;;;;;5074090;28;20415;-76
2022/03/31 11:16:44;;;;;;;49.40;26.53;;;14.80;40.00;;;;;;5113045;28;20428;-75
2022/03/31 11:19:09;;;;;;;42.23;24.00;;;14.60;39.90;;;;;;5116168;28;20460;-76
2022/03/31 11:21:37;;;;;;;36.07;23.17;;;14.50;41.50;;;;;;5115575;28;20396;-75
2022/03/31 11:24:04;;;;;;;37.30;23.30;;;14.80;39.20;;;;;;5115453;28;20254;-75
2022/03/31 11:26:34;;;;;;;37.30;23.50;;;14.60;40.80;;;;;;5115396;28;20426;-74
2022/03/31 11:29:01;;;;;;;39.70;24.63;;;15.00;39.60;;;;;;5115259;28;20439;-74
2022/03/31 11:31:27;;;;;;;44.27;24.90;;;15.50;37.50;;;;;;5114977;28;20420;-74
2022/03/31 11:33:55;;;;;;;38.33;23.90;;;15.40;38.70;;;;;;5114630;28;20398;-74
2022/03/31 11:36:22;;;;;;;43.60;25.93;;;15.80;36.70;;;;;;5114422;28;20628;-75
2022/03/31 11:38:58;;;;;;;41.73;24.23;;;15.90;38.50;;;;;;5114743;28;20562;-75
2022/03/31 11:41:25;;;;;;;41.20;24.67;;;16.30;36.50;;;;;;5114548;28;20943;-75
2022/03/31 11:43:56;;;;;;;45.70;26.07;;;16.80;35.30;;;;;;5114715;28;20401;-75
2022/03/31 11:46:21;;;;;;;47.17;25.63;;;16.70;34.60;;;;;;5112678;28;20779;-75
2022/03/31 11:48:49;;;;;;;40.03;25.07;;;16.30;34.50;;;;;;5114500;28;20524;-75
2022/03/31 11:51:15;;;;;;;36.23;23.47;;;16.40;34.50;;;;;;5114661;28;20166;-75
2022/03/31 11:53:47;;;;;;;36.47;24.70;;;16.00;32.20;;;;;;5114203;28;20413;-75
2022/03/31 11:56:22;;;;;;;38.67;24.47;;;15.90;36.00;;;;;;5100188;28;21028;-74
2022/03/31 11:58:52;;;;;;;40.90;24.83;;;15.50;37.30;;;;;;5094111;28;20495;-74
2022/03/31 12:01:46;;;;;;;50.33;25.60;;;16.00;37.90;;;;;;5093837;28;20398;-74
2022/03/31 12:04:22;;;;;;;37.47;23.37;;;15.80;35.80;;;;;;5094052;28;20408;-75
2022/03/31 12:06:50;;;;;;;44.40;25.30;;;16.30;32.50;;;;;;5107173;28;20424;-74
2022/03/31 12:09:16;;;;;;;40.80;25.30;;;16.90;35.30;;;;;;5114520;28;20843;-75
2022/03/31 12:11:42;;;;;;;45.33;26.23;;;17.30;32.60;;;;;;5114034;28;20490;-74
2022/03/31 12:14:12;;;;;;;40.43;25.77;;;17.10;33.40;;;;;;5113176;28;20184;-75
2022/03/31 12:16:51;;;;;;;44.43;25.47;;;16.60;34.40;;;;;;5114478;28;20426;-75
2022/03/31 12:19:18;;;;;;;37.83;25.10;;;17.10;32.70;;;;;;5114180;28;20461;-75
2022/03/31 12:21:52;;;;;;;33.90;23.43;;;17.70;32.10;;;;;;5113937;28;20446;-75
2022/03/31 12:24:20;;;;;;;39.90;25.23;;;17.40;31.20;;;;;;5113585;28;20508;-75
2022/03/31 12:27:03;;;;;;;40.80;24.47;;;18.30;30.90;;;;;;5113379;28;20404;-75
2022/03/31 12:29:34;;;;;;;35.37;23.77;;;18.40;29.50;;;;;;5114433;28;20430;-75
2022/03/31 12:32:06;;;;;;;39.47;23.73;;;18.40;29.40;;;;;;5113687;28;20422;-75
2022/03/31 12:34:34;;;;;;;33.50;21.50;;;19.20;27.90;;;;;;5113862;28;20419;-75